Time;durP1;ratioP1;P1;durP2;ratioP2;P2;SDS_P1;SDS_P2;PMS_P1;PMS_P2;Temp;Humidity;BMP_temperature;BMP_pressure;BME280_temperature;BME280_humidity;BME280_pressure;Samples;Min_cycle;Max_cycle;Signal;HPM_P1;HPM_P2
2023/10/04 00:00:14;;;;;;;5.03;2.65;;;;;;;;;;5108724;28;41752;-72
2023/10/04 00:02:44;;;;;;;4.40;2.78;;;;;;;;;;5105355;28;40380;-72
2023/10/04 00:05:15;;;;;;;4.93;2.75;;;;;;;;;;5108452;28;42245;-71
2023/10/04 00:07:43;;;;;;;6.57;3.22;;;;;;;;;;5108709;27;41393;-71
2023/10/04 00:10:12;;;;;;;4.13;2.70;;;;;;;;;;5106348;27;41579;-71
2023/10/04 00:12:40;;;;;;;4.15;2.25;;;;;;;;;;5107770;28;41891;-71
2023/10/04 00:15:11;;;;;;;4.60;2.30;;;;;;;;;;5105595;28;40045;-71
2023/10/04 00:17:41;;;;;;;3.90;2.47;;;;;;;;;;5105822;28;41272;-71
2023/10/04 00:20:10;;;;;;;5.30;3.05;;;;;;;;;;5107972;27;42208;-71
2023/10/04 00:22:39;;;;;;;3.30;2.20;;;;;;;;;;5108845;28;40475;-71
2023/10/04 00:25:11;;;;;;;2.17;1.77;;;;;;;;;;5107447;28;42239;-71
2023/10/04 00:27:41;;;;;;;3.33;2.42;;;;;;;;;;5094995;28;43069;-72
2023/10/04 00:30:12;;;;;;;5.53;2.30;;;;;;;;;;5108999;28;41871;-72
2023/10/04 00:32:41;;;;;;;3.72;2.30;;;;;;;;;;5104431;28;42263;-72
2023/10/04 00:35:11;;;;;;;3.78;1.92;;;;;;;;;;5108560;27;39816;-72
2023/10/04 00:37:42;;;;;;;4.45;2.50;;;;;;;;;;5105543;28;42312;-72
2023/10/04 00:40:12;;;;;;;4.07;2.00;;;;;;;;;;5108024;28;42386;-72
2023/10/04 00:42:40;;;;;;;4.22;2.10;;;;;;;;;;5108287;28;40403;-72
2023/10/04 00:45:12;;;;;;;6.28;2.88;;;;;;;;;;5108286;28;42402;-72
2023/10/04 00:47:43;;;;;;;4.40;2.58;;;;;;;;;;5105178;28;42118;-72
2023/10/04 00:50:16;;;;;;;3.45;2.28;;;;;;;;;;5124282;27;38823;-72
2023/10/04 00:52:46;;;;;;;4.35;2.08;;;;;;;;;;5106018;28;41546;-72
2023/10/04 00:55:16;;;;;;;6.10;2.78;;;;;;;;;;5110165;27;38793;-72
2023/10/04 00:57:44;;;;;;;6.13;2.58;;;;;;;;;;5109917;27;40763;-72
2023/10/04 01:00:13;;;;;;;5.50;2.60;;;;;;;;;;5111390;28;41880;-72
2023/10/04 01:02:43;;;;;;;2.83;2.00;;;;;;;;;;5111904;27;41365;-72
2023/10/04 01:05:14;;;;;;;3.65;2.30;;;;;;;;;;5112569;28;41477;-72
2023/10/04 01:07:42;;;;;;;5.00;2.72;;;;;;;;;;5108131;28;41985;-72
2023/10/04 01:10:15;;;;;;;6.32;2.42;;;;;;;;;;5111729;28;41381;-73
2023/10/04 01:12:46;;;;;;;4.65;2.75;;;;;;;;;;5109174;28;41638;-72
2023/10/04 01:18:04;;;;;;;4.50;2.20;;;;;;;;;;5107971;27;41610;-72
2023/10/04 01:20:33;;;;;;;3.53;2.10;;;;;;;;;;5111030;28;42733;-73
2023/10/04 01:23:05;;;;;;;5.13;2.13;;;;;;;;;;5111190;28;40952;-73
2023/10/04 01:25:33;;;;;;;3.75;2.20;;;;;;;;;;5110280;28;39885;-73
2023/10/04 01:28:02;;;;;;;3.00;2.10;;;;;;;;;;5111788;28;41561;-72
2023/10/04 01:30:31;;;;;;;3.80;2.00;;;;;;;;;;5111097;28;41023;-72
2023/10/04 01:33:03;;;;;;;3.10;1.70;;;;;;;;;;5110167;27;40774;-72
2023/10/04 01:35:32;;;;;;;5.95;2.45;;;;;;;;;;5107976;28;42065;-73
2023/10/04 01:38:00;;;;;;;3.25;2.00;;;;;;;;;;5111786;28;42723;-73
2023/10/04 01:40:32;;;;;;;4.00;2.35;;;;;;;;;;5109976;28;41770;-73
2023/10/04 01:43:00;;;;;;;4.32;2.28;;;;;;;;;;5107845;28;40300;-73
2023/10/04 01:45:28;;;;;;;4.05;2.05;;;;;;;;;;5109941;28;40194;-73
2023/10/04 01:47:56;;;;;;;3.70;2.20;;;;;;;;;;5111196;28;42069;-73
2023/10/04 01:50:24;;;;;;;3.55;2.08;;;;;;;;;;5110888;28;40329;-73
2023/10/04 01:52:53;;;;;;;4.63;1.92;;;;;;;;;;5111168;27;42592;-72
2023/10/04 01:55:21;;;;;;;4.28;2.10;;;;;;;;;;5127008;27;41817;-73
2023/10/04 01:57:51;;;;;;;5.95;2.20;;;;;;;;;;5108735;28;40004;-72
2023/10/04 02:00:22;;;;;;;6.63;2.10;;;;;;;;;;5109430;28;40614;-73
2023/10/04 02:02:51;;;;;;;4.20;2.28;;;;;;;;;;5107831;28;40668;-72
2023/10/04 02:05:24;;;;;;;2.65;1.67;;;;;;;;;;5108457;27;40296;-72
2023/10/04 02:07:53;;;;;;;3.80;2.15;;;;;;;;;;5107629;28;42794;-73
2023/10/04 02:10:22;;;;;;;3.63;1.67;;;;;;;;;;5111102;28;40908;-73
2023/10/04 02:12:53;;;;;;;3.53;2.30;;;;;;;;;;5126615;27;41609;-72
2023/10/04 02:15:21;;;;;;;4.03;2.08;;;;;;;;;;5109496;28;40315;-72
2023/10/04 02:17:50;;;;;;;4.00;2.00;;;;;;;;;;5110053;27;41965;-72
2023/10/04 02:20:22;;;;;;;3.40;2.00;;;;;;;;;;5110721;28;41801;-73
2023/10/04 02:22:50;;;;;;;3.15;1.70;;;;;;;;;;5109175;28;39822;-72
2023/10/04 02:25:19;;;;;;;3.78;1.67;;;;;;;;;;5108926;28;40584;-73
2023/10/04 02:27:49;;;;;;;4.95;2.30;;;;;;;;;;5110431;28;42206;-73
2023/10/04 02:30:22;;;;;;;2.55;1.60;;;;;;;;;;5110653;28;40165;-73
2023/10/04 02:32:51;;;;;;;4.55;2.30;;;;;;;;;;5106956;28;42391;-73
2023/10/04 02:35:27;;;;;;;4.72;1.85;;;;;;;;;;5110863;28;42001;-73
2023/10/04 02:37:59;;;;;;;3.67;2.15;;;;;;;;;;5109400;28;38878;-73
2023/10/04 02:40:32;;;;;;;4.60;2.10;;;;;;;;;;5125113;27;40853;-73
2023/10/04 02:43:03;;;;;;;3.42;1.92;;;;;;;;;;5107804;28;43597;-73
2023/10/04 02:45:36;;;;;;;4.60;2.60;;;;;;;;;;5108972;28;42828;-72
2023/10/04 02:48:05;;;;;;;3.35;1.98;;;;;;;;;;5108671;28;40551;-72
2023/10/04 02:50:33;;;;;;;4.45;2.10;;;;;;;;;;5110158;27;42032;-72
2023/10/04 02:53:02;;;;;;;4.95;2.22;;;;;;;;;;5109563;28;42478;-72
2023/10/04 02:55:31;;;;;;;4.65;1.75;;;;;;;;;;5108848;28;41997;-72
2023/10/04 02:58:00;;;;;;;4.88;2.15;;;;;;;;;;5108967;28;39282;-72
2023/10/04 03:00:29;;;;;;;3.75;2.15;;;;;;;;;;5107674;28;40697;-73
2023/10/04 03:02:58;;;;;;;5.05;1.88;;;;;;;;;;5109771;28;41702;-73
2023/10/04 03:05:32;;;;;;;4.80;2.42;;;;;;;;;;5109220;27;39526;-72
2023/10/04 03:08:07;;;;;;;4.68;2.40;;;;;;;;;;5124417;27;40795;-73
2023/10/04 03:10:36;;;;;;;3.97;2.10;;;;;;;;;;5108284;28;39864;-72
2023/10/04 03:13:12;;;;;;;3.08;1.60;;;;;;;;;;5108544;28;39079;-73
2023/10/04 03:15:43;;;;;;;3.63;2.03;;;;;;;;;;5109596;27;43228;-73
2023/10/04 03:18:18;;;;;;;6.30;2.65;;;;;;;;;;5108651;27;38801;-73
2023/10/04 03:21:07;;;;;;;5.20;2.35;;;;;;;;;;5106953;28;40108;-73
2023/10/04 03:23:42;;;;;;;3.47;1.60;;;;;;;;;;5108484;27;41138;-72
2023/10/04 03:26:20;;;;;;;3.03;1.60;;;;;;;;;;5109132;28;39468;-73
2023/10/04 03:28:52;;;;;;;4.72;1.95;;;;;;;;;;5107486;28;41900;-72
2023/10/04 03:31:25;;;;;;;4.25;1.95;;;;;;;;;;5107873;28;40110;-72
2023/10/04 03:33:58;;;;;;;4.20;2.10;;;;;;;;;;5108232;27;40257;-72
2023/10/04 03:36:29;;;;;;;3.42;1.92;;;;;;;;;;5107739;28;41961;-72
2023/10/04 03:39:03;;;;;;;3.17;1.88;;;;;;;;;;5108021;28;38777;-73
2023/10/04 03:41:33;;;;;;;1.70;1.33;;;;;;;;;;5108291;28;41706;-73
2023/10/04 03:44:06;;;;;;;4.75;1.95;;;;;;;;;;5107321;28;40604;-73
2023/10/04 03:46:37;;;;;;;2.15;1.27;;;;;;;;;;5108068;28;39143;-73
2023/10/04 03:49:06;;;;;;;4.07;1.63;;;;;;;;;;5108592;28;41514;-73
2023/10/04 03:51:34;;;;;;;2.97;1.52;;;;;;;;;;5109431;28;39817;-73
2023/10/04 03:54:07;;;;;;;4.57;2.28;;;;;;;;;;5107944;28;41185;-73
2023/10/04 03:56:37;;;;;;;4.65;2.10;;;;;;;;;;5106416;27;40863;-73
2023/10/04 03:59:08;;;;;;;3.20;1.50;;;;;;;;;;5109007;28;41166;-73
2023/10/04 04:01:37;;;;;;;3.13;1.75;;;;;;;;;;5108273;28;41129;-73
2023/10/04 04:04:08;;;;;;;5.25;2.20;;;;;;;;;;5106800;28;40702;-73
2023/10/04 04:06:36;;;;;;;6.75;2.30;;;;;;;;;;5124700;27;38936;-73
2023/10/04 04:09:08;;;;;;;6.20;2.47;;;;;;;;;;5107510;28;40398;-72
2023/10/04 04:11:37;;;;;;;5.20;2.13;;;;;;;;;;5124070;27;42093;-73
2023/10/04 04:14:07;;;;;;;4.47;2.00;;;;;;;;;;5107862;28;40328;-72
2023/10/04 04:16:37;;;;;;;9.88;3.17;;;;;;;;;;5107213;27;42864;-72
2023/10/04 04:19:07;;;;;;;3.90;2.13;;;;;;;;;;5107234;27;38656;-73
2023/10/04 04:21:35;;;;;;;3.92;2.10;;;;;;;;;;5106813;28;40297;-73
2023/10/04 04:24:04;;;;;;;2.65;1.50;;;;;;;;;;5106382;28;41402;-73
2023/10/04 04:26:33;;;;;;;3.03;2.00;;;;;;;;;;5107434;28;38757;-73
2023/10/04 04:29:02;;;;;;;3.97;1.95;;;;;;;;;;5106666;27;40107;-73
2023/10/04 04:31:31;;;;;;;2.42;1.58;;;;;;;;;;5106531;28;42523;-72
2023/10/04 04:34:00;;;;;;;5.07;1.48;;;;;;;;;;5107529;28;40469;-73
2023/10/04 04:36:32;;;;;;;2.75;1.40;;;;;;;;;;5108373;28;42203;-72
2023/10/04 04:39:05;;;;;;;5.40;1.73;;;;;;;;;;5106352;28;38849;-73
2023/10/04 04:41:36;;;;;;;2.60;1.42;;;;;;;;;;5107397;28;41137;-73
2023/10/04 04:44:07;;;;;;;3.42;1.85;;;;;;;;;;5114781;27;40658;-72
2023/10/04 04:46:38;;;;;;;2.45;1.35;;;;;;;;;;5099130;28;41610;-73
2023/10/04 04:49:07;;;;;;;3.28;1.52;;;;;;;;;;5105697;28;40125;-73
2023/10/04 04:51:37;;;;;;;3.33;1.58;;;;;;;;;;5107184;28;40945;-72
2023/10/04 04:54:07;;;;;;;3.38;1.40;;;;;;;;;;5104439;28;40268;-72
2023/10/04 04:56:35;;;;;;;2.67;1.50;;;;;;;;;;5107486;28;40206;-73
2023/10/04 04:59:09;;;;;;;2.30;1.50;;;;;;;;;;5107036;28;38781;-72
2023/10/04 05:01:39;;;;;;;4.15;1.65;;;;;;;;;;5107687;28;39968;-73
2023/10/04 05:04:09;;;;;;;3.20;1.17;;;;;;;;;;5106901;28;41529;-73
2023/10/04 05:06:39;;;;;;;2.53;1.50;;;;;;;;;;5102470;28;40710;-73
2023/10/04 05:09:10;;;;;;;3.00;1.20;;;;;;;;;;5102194;28;41665;-72
2023/10/04 05:11:38;;;;;;;2.97;1.52;;;;;;;;;;5094485;28;42819;-73
2023/10/04 05:14:08;;;;;;;2.88;1.40;;;;;;;;;;5107550;28;42178;-73
2023/10/04 05:16:36;;;;;;;4.78;1.92;;;;;;;;;;5106742;28;39823;-73
2023/10/04 05:19:08;;;;;;;5.35;1.73;;;;;;;;;;5108801;28;33042;-73
2023/10/04 05:21:37;;;;;;;2.63;1.40;;;;;;;;;;5107514;28;41652;-73
2023/10/04 05:24:06;;;;;;;3.80;1.90;;;;;;;;;;5107713;28;42034;-72
2023/10/04 05:26:37;;;;;;;4.32;1.55;;;;;;;;;;5108296;28;40226;-73
2023/10/04 05:29:07;;;;;;;4.47;2.03;;;;;;;;;;5104409;28;41915;-73
2023/10/04 05:31:34;;;;;;;4.10;1.83;;;;;;;;;;5106669;28;41679;-73
2023/10/04 05:34:03;;;;;;;3.00;1.67;;;;;;;;;;5101999;28;39635;-72
2023/10/04 05:36:31;;;;;;;5.88;1.65;;;;;;;;;;5100001;28;42172;-73
2023/10/04 05:39:01;;;;;;;4.60;2.13;;;;;;;;;;5102530;28;42526;-73
2023/10/04 05:41:31;;;;;;;3.40;2.17;;;;;;;;;;5097392;27;42090;-73
2023/10/04 05:44:00;;;;;;;3.58;1.88;;;;;;;;;;5104667;28;42845;-72
2023/10/04 05:46:28;;;;;;;4.93;2.08;;;;;;;;;;5111470;28;40953;-72
2023/10/04 05:48:56;;;;;;;3.80;1.85;;;;;;;;;;5109004;28;40288;-73
2023/10/04 05:51:24;;;;;;;3.50;1.70;;;;;;;;;;5111428;27;42194;-72
2023/10/04 05:53:52;;;;;;;5.18;1.98;;;;;;;;;;5110676;28;41356;-73
2023/10/04 05:56:23;;;;;;;2.58;1.58;;;;;;;;;;5111234;28;41774;-72
2023/10/04 05:58:52;;;;;;;3.28;1.70;;;;;;;;;;5110464;28;41608;-73
2023/10/04 06:01:22;;;;;;;3.85;1.75;;;;;;;;;;5115517;27;42890;-73
2023/10/04 06:03:50;;;;;;;5.13;1.75;;;;;;;;;;5109693;28;42598;-72
2023/10/04 06:06:18;;;;;;;2.65;1.63;;;;;;;;;;5111451;28;41287;-73
2023/10/04 06:08:47;;;;;;;3.70;2.08;;;;;;;;;;5108935;27;42031;-73
2023/10/04 06:11:15;;;;;;;3.40;1.55;;;;;;;;;;5099385;28;41495;-73
2023/10/04 06:13:43;;;;;;;3.72;1.60;;;;;;;;;;5110417;28;40808;-72
2023/10/04 06:16:19;;;;;;;3.85;1.55;;;;;;;;;;5104508;28;41364;-73
2023/10/04 06:18:48;;;;;;;4.20;2.13;;;;;;;;;;5102834;27;41569;-73
2023/10/04 06:21:16;;;;;;;4.60;1.70;;;;;;;;;;5109196;27;40939;-73
2023/10/04 06:23:44;;;;;;;4.03;1.80;;;;;;;;;;5109041;28;41652;-73
2023/10/04 06:26:16;;;;;;;2.58;1.38;;;;;;;;;;5110034;28;40927;-72
2023/10/04 06:28:46;;;;;;;2.65;1.58;;;;;;;;;;5107502;27;41667;-73
2023/10/04 06:31:15;;;;;;;4.85;1.83;;;;;;;;;;5106143;28;42257;-72
2023/10/04 06:33:43;;;;;;;3.33;1.42;;;;;;;;;;5107517;28;41570;-73
2023/10/04 06:36:11;;;;;;;5.03;1.95;;;;;;;;;;5109652;28;41999;-73
2023/10/04 06:38:40;;;;;;;5.00;1.73;;;;;;;;;;5109231;28;42968;-72
2023/10/04 06:41:08;;;;;;;3.83;1.60;;;;;;;;;;5110113;27;41256;-73
2023/10/04 06:43:36;;;;;;;3.08;1.73;;;;;;;;;;5109640;28;41671;-73
2023/10/04 06:46:05;;;;;;;2.70;1.45;;;;;;;;;;5101280;28;41700;-72
2023/10/04 06:48:35;;;;;;;3.08;1.85;;;;;;;;;;5109656;28;42591;-73
2023/10/04 06:51:03;;;;;;;3.40;1.63;;;;;;;;;;5107826;27;41681;-72
2023/10/04 06:53:31;;;;;;;3.45;1.80;;;;;;;;;;5107347;27;40579;-73
2023/10/04 06:56:01;;;;;;;5.00;2.08;;;;;;;;;;5105898;28;41821;-73
2023/10/04 06:58:29;;;;;;;7.22;2.55;;;;;;;;;;5109483;28;42853;-73
2023/10/04 07:00:57;;;;;;;6.95;2.50;;;;;;;;;;5109535;28;40067;-73
2023/10/04 07:03:27;;;;;;;3.83;2.00;;;;;;;;;;5109888;27;41447;-73
2023/10/04 07:05:56;;;;;;;5.13;2.45;;;;;;;;;;5109039;28;42713;-73
2023/10/04 07:08:31;;;;;;;4.50;2.15;;;;;;;;;;5109605;28;41374;-73
2023/10/04 07:11:00;;;;;;;9.98;3.03;;;;;;;;;;5101989;28;41752;-72
2023/10/04 07:13:32;;;;;;;6.57;2.33;;;;;;;;;;5109145;28;41395;-72
2023/10/04 07:16:04;;;;;;;3.90;2.08;;;;;;;;;;5101331;28;41670;-73
2023/10/04 07:18:33;;;;;;;4.85;2.45;;;;;;;;;;5109406;28;42494;-69
2023/10/04 07:21:02;;;;;;;5.18;2.78;;;;;;;;;;5108081;28;41291;-69
2023/10/04 07:23:30;;;;;;;6.38;2.20;;;;;;;;;;5108770;27;42026;-69
2023/10/04 07:26:10;;;;;;;6.03;2.10;;;;;;;;;;5105995;28;41820;-69
2023/10/04 07:28:40;;;;;;;7.60;2.50;;;;;;;;;;5101409;28;40286;-69
2023/10/04 07:31:08;;;;;;;8.57;2.55;;;;;;;;;;5108906;28;42064;-69
2023/10/04 07:33:36;;;;;;;6.07;2.78;;;;;;;;;;5109197;27;41080;-69
2023/10/04 07:36:06;;;;;;;2.90;1.48;;;;;;;;;;5108743;28;42207;-70
2023/10/04 07:38:35;;;;;;;7.93;2.05;;;;;;;;;;5108380;28;41463;-69
2023/10/04 07:41:03;;;;;;;7.88;2.13;;;;;;;;;;5106465;27;39129;-69
2023/10/04 07:43:31;;;;;;;6.75;2.80;;;;;;;;;;5108617;28;41638;-71
2023/10/04 07:46:01;;;;;;;5.90;1.73;;;;;;;;;;5108676;28;42569;-71
2023/10/04 07:48:29;;;;;;;11.23;2.78;;;;;;;;;;5102085;28;40169;-72
2023/10/04 07:50:57;;;;;;;9.13;1.83;;;;;;;;;;5107833;27;41843;-70
2023/10/04 07:53:27;;;;;;;15.43;2.15;;;;;;;;;;5106261;28;41362;-70
2023/10/04 07:55:55;;;;;;;6.60;1.58;;;;;;;;;;5107530;28;41559;-69
2023/10/04 07:58:23;;;;;;;9.23;2.90;;;;;;;;;;5106200;27;42022;-69
2023/10/04 08:00:50;;;;;;;9.82;2.88;;;;;;;;;;5105995;27;40342;-69
2023/10/04 08:03:19;;;;;;;12.80;3.03;;;;;;;;;;5105316;27;42883;-73
2023/10/04 08:05:47;;;;;;;11.15;3.42;;;;;;;;;;5105728;28;43631;-72
2023/10/04 08:08:15;;;;;;;10.88;2.83;;;;;;;;;;5106762;28;41132;-70
2023/10/04 08:10:44;;;;;;;6.43;2.50;;;;;;;;;;5105676;28;42044;-70
2023/10/04 08:13:13;;;;;;;6.43;2.47;;;;;;;;;;5108142;28;42026;-70
2023/10/04 08:15:41;;;;;;;8.38;2.28;;;;;;;;;;5107814;27;41744;-69
2023/10/04 08:18:13;;;;;;;8.13;3.28;;;;;;;;;;5107081;28;42525;-69
2023/10/04 08:20:42;;;;;;;10.05;2.47;;;;;;;;;;5085313;28;39930;-71
2023/10/04 08:23:13;;;;;;;15.15;2.83;;;;;;;;;;5102216;28;20281;-72
2023/10/04 08:25:42;;;;;;;12.35;2.95;;;;;;;;;;5096417;27;43841;-70
2023/10/04 08:28:12;;;;;;;9.43;2.60;;;;;;;;;;5106299;28;40041;-70
2023/10/04 08:30:41;;;;;;;14.90;3.08;;;;;;;;;;5098613;28;42452;-69
2023/10/04 08:33:09;;;;;;;13.85;2.83;;;;;;;;;;5105235;28;43243;-68
2023/10/04 08:35:37;;;;;;;12.45;3.33;;;;;;;;;;5108813;28;39742;-70
2023/10/04 08:38:05;;;;;;;10.52;2.80;;;;;;;;;;5107586;28;43207;-69
2023/10/04 08:40:35;;;;;;;9.07;3.33;;;;;;;;;;5108400;28;40568;-70
2023/10/04 08:43:04;;;;;;;15.25;3.30;;;;;;;;;;5108329;28;41416;-70
2023/10/04 08:45:33;;;;;;;7.93;2.78;;;;;;;;;;5104849;28;42206;-70
2023/10/04 08:48:02;;;;;;;8.25;2.60;;;;;;;;;;5108628;28;39770;-71
2023/10/04 08:50:31;;;;;;;10.50;2.70;;;;;;;;;;5108068;28;42109;-70
2023/10/04 08:53:03;;;;;;;10.48;3.20;;;;;;;;;;5106610;28;43333;-70
2023/10/04 08:55:32;;;;;;;7.78;2.78;;;;;;;;;;5097071;28;41601;-70
2023/10/04 08:58:00;;;;;;;14.00;3.60;;;;;;;;;;5100687;28;41866;-71
2023/10/04 09:00:29;;;;;;;13.00;3.05;;;;;;;;;;5106974;27;40131;-70
2023/10/04 09:03:01;;;;;;;7.35;3.08;;;;;;;;;;5103466;28;41982;-71
2023/10/04 09:05:29;;;;;;;12.38;3.38;;;;;;;;;;5099525;28;41367;-71
2023/10/04 09:07:57;;;;;;;8.18;3.00;;;;;;;;;;5107446;28;40664;-70
2023/10/04 09:10:25;;;;;;;10.07;3.15;;;;;;;;;;5107820;28;42507;-71
2023/10/04 09:12:53;;;;;;;13.13;3.63;;;;;;;;;;5105974;28;41994;-70
2023/10/04 09:15:27;;;;;;;8.57;2.70;;;;;;;;;;5108439;27;41074;-69
2023/10/04 09:17:57;;;;;;;7.60;3.05;;;;;;;;;;5111756;28;41826;-69
2023/10/04 09:20:29;;;;;;;8.60;3.40;;;;;;;;;;5110355;28;41862;-69
2023/10/04 09:22:59;;;;;;;8.18;3.53;;;;;;;;;;5107996;28;42434;-69
2023/10/04 09:25:35;;;;;;;7.97;2.80;;;;;;;;;;5110809;28;42069;-69
2023/10/04 09:28:04;;;;;;;10.00;3.10;;;;;;;;;;5107133;28;40801;-70
2023/10/04 09:30:34;;;;;;;9.02;4.25;;;;;;;;;;5109576;28;41489;-69
2023/10/04 09:33:02;;;;;;;7.25;2.55;;;;;;;;;;5106763;28;42362;-69
2023/10/04 09:35:42;;;;;;;8.10;2.70;;;;;;;;;;5110494;27;41309;-72
2023/10/04 09:38:14;;;;;;;6.80;3.05;;;;;;;;;;5105077;28;42353;-72
2023/10/04 09:40:49;;;;;;;11.43;3.55;;;;;;;;;;5107058;28;43158;-69
2023/10/04 09:43:17;;;;;;;10.98;4.05;;;;;;;;;;5111244;27;42638;-71
2023/10/04 09:45:55;;;;;;;12.05;3.50;;;;;;;;;;5110977;27;43253;-69
2023/10/04 09:48:24;;;;;;;13.57;4.00;;;;;;;;;;5106956;28;42405;-72
2023/10/04 09:51:00;;;;;;;9.43;3.00;;;;;;;;;;5110656;28;42320;-70
2023/10/04 09:53:28;;;;;;;11.57;3.10;;;;;;;;;;5109178;27;40766;-71
2023/10/04 09:55:58;;;;;;;7.47;2.92;;;;;;;;;;5109772;27;40342;-72
2023/10/04 09:58:26;;;;;;;7.13;3.70;;;;;;;;;;5110517;28;41635;-71
2023/10/04 10:00:54;;;;;;;9.63;3.90;;;;;;;;;;5110901;27;43390;-69
2023/10/04 10:03:22;;;;;;;7.47;3.00;;;;;;;;;;5110419;28;40416;-69
2023/10/04 10:05:50;;;;;;;6.72;3.03;;;;;;;;;;5110117;28;41779;-72
2023/10/04 10:08:20;;;;;;;8.77;3.17;;;;;;;;;;5110577;28;39805;-69
2023/10/04 10:10:47;;;;;;;9.52;3.22;;;;;;;;;;5109478;28;41716;-69
2023/10/04 10:13:16;;;;;;;7.57;3.03;;;;;;;;;;5110997;28;42466;-68
2023/10/04 10:15:44;;;;;;;9.40;3.92;;;;;;;;;;5109000;27;40265;-68
2023/10/04 10:18:12;;;;;;;16.13;4.32;;;;;;;;;;5110330;28;41612;-69
2023/10/04 10:20:42;;;;;;;9.93;3.13;;;;;;;;;;5110321;27;41675;-69
2023/10/04 10:23:13;;;;;;;9.65;3.80;;;;;;;;;;5109446;28;39596;-71
2023/10/04 10:25:42;;;;;;;10.25;3.08;;;;;;;;;;5107730;27;40898;-67
2023/10/04 10:28:20;;;;;;;10.02;3.22;;;;;;;;;;5109645;27;40105;-67
2023/10/04 10:30:48;;;;;;;7.80;2.80;;;;;;;;;;5099738;28;41764;-68
2023/10/04 10:33:16;;;;;;;9.10;3.50;;;;;;;;;;5090418;28;42127;-68
2023/10/04 10:35:51;;;;;;;10.15;2.95;;;;;;;;;;5093926;28;41047;-68
2023/10/04 10:38:29;;;;;;;8.30;3.05;;;;;;;;;;5102163;28;42449;-70
2023/10/04 10:40:58;;;;;;;10.00;2.72;;;;;;;;;;5102392;28;42572;-68
2023/10/04 10:43:26;;;;;;;8.48;3.15;;;;;;;;;;5096665;28;40285;-70
2023/10/04 10:45:56;;;;;;;7.40;2.95;;;;;;;;;;5108971;28;42946;-68
2023/10/04 10:48:33;;;;;;;15.23;3.13;;;;;;;;;;5109559;28;43363;-68
2023/10/04 10:51:01;;;;;;;9.27;3.60;;;;;;;;;;5105561;28;42280;-69
2023/10/04 10:53:29;;;;;;;12.98;3.42;;;;;;;;;;5108948;28;42002;-69
2023/10/04 10:55:59;;;;;;;12.73;3.55;;;;;;;;;;5109443;28;40647;-69
2023/10/04 10:58:27;;;;;;;9.13;3.30;;;;;;;;;;5108896;28;41679;-68
2023/10/04 11:00:56;;;;;;;14.55;3.85;;;;;;;;;;5108602;28;42350;-68
2023/10/04 11:03:24;;;;;;;13.57;3.22;;;;;;;;;;5108172;27;39826;-69
2023/10/04 11:05:54;;;;;;;9.45;3.28;;;;;;;;;;5108777;27;41808;-69
2023/10/04 11:08:22;;;;;;;12.15;4.18;;;;;;;;;;5109735;28;43681;-69
2023/10/04 11:10:50;;;;;;;5.60;2.17;;;;;;;;;;5108586;28;40927;-68
2023/10/04 11:13:21;;;;;;;8.23;3.13;;;;;;;;;;5107959;28;41691;-69
2023/10/04 11:15:49;;;;;;;9.48;3.63;;;;;;;;;;5107829;28;40456;-70
2023/10/04 11:18:17;;;;;;;7.43;3.00;;;;;;;;;;5109182;28;42286;-69
2023/10/04 11:20:45;;;;;;;7.25;3.13;;;;;;;;;;5107808;28;43173;-69
2023/10/04 11:23:13;;;;;;;9.57;3.00;;;;;;;;;;5109733;28;39913;-70
2023/10/04 11:25:42;;;;;;;7.78;2.70;;;;;;;;;;5108338;28;41829;-69
2023/10/04 11:28:11;;;;;;;9.32;3.53;;;;;;;;;;5108621;27;41627;-70
2023/10/04 11:30:40;;;;;;;8.80;3.03;;;;;;;;;;5109335;27;41114;-70
2023/10/04 11:33:08;;;;;;;9.77;3.50;;;;;;;;;;5100290;28;42655;-70
2023/10/04 11:35:38;;;;;;;9.68;3.83;;;;;;;;;;5109123;28;40344;-69
2023/10/04 11:38:13;;;;;;;10.10;3.45;;;;;;;;;;5108253;27;41683;-71
2023/10/04 11:40:41;;;;;;;7.65;2.85;;;;;;;;;;5105269;28;43062;-70
2023/10/04 11:43:09;;;;;;;8.82;3.58;;;;;;;;;;5108703;28;41109;-69
2023/10/04 11:45:37;;;;;;;11.25;2.88;;;;;;;;;;5107856;27;41621;-70
2023/10/04 11:48:08;;;;;;;10.02;3.00;;;;;;;;;;5107946;27;42757;-70
2023/10/04 11:50:45;;;;;;;10.30;4.30;;;;;;;;;;5108899;27;41074;-67
2023/10/04 11:53:14;;;;;;;8.90;3.35;;;;;;;;;;5105983;28;41774;-67
2023/10/04 11:55:43;;;;;;;7.00;3.33;;;;;;;;;;5106484;28;38748;-67
2023/10/04 11:58:11;;;;;;;8.52;3.42;;;;;;;;;;5108419;28;41167;-68
2023/10/04 12:00:42;;;;;;;7.70;3.47;;;;;;;;;;5105705;27;42696;-68
2023/10/04 12:03:11;;;;;;;8.85;3.63;;;;;;;;;;5107130;28;40819;-68
2023/10/04 12:05:40;;;;;;;7.60;3.13;;;;;;;;;;5107946;28;42513;-67
2023/10/04 12:08:09;;;;;;;7.40;2.63;;;;;;;;;;5107695;28;41934;-67
2023/10/04 12:10:39;;;;;;;7.85;3.40;;;;;;;;;;5106935;27;40967;-67
2023/10/04 12:13:07;;;;;;;9.35;3.85;;;;;;;;;;5107690;28;41911;-67
2023/10/04 12:15:35;;;;;;;12.23;3.47;;;;;;;;;;5097779;28;42153;-67
2023/10/04 12:18:03;;;;;;;7.25;3.00;;;;;;;;;;5106235;28;41906;-68
2023/10/04 12:20:36;;;;;;;8.15;3.58;;;;;;;;;;5106501;27;42776;-67
2023/10/04 12:23:05;;;;;;;6.07;2.70;;;;;;;;;;5107129;27;41378;-68
2023/10/04 12:25:35;;;;;;;11.00;3.60;;;;;;;;;;5107914;28;41566;-68
2023/10/04 12:28:04;;;;;;;18.58;3.05;;;;;;;;;;5108359;27;42117;-69
2023/10/04 12:30:33;;;;;;;7.97;3.67;;;;;;;;;;5090331;28;41454;-71
2023/10/04 12:33:02;;;;;;;9.00;3.20;;;;;;;;;;5102530;27;41795;-70
2023/10/04 12:35:30;;;;;;;8.27;3.90;;;;;;;;;;5098650;27;41549;-71
2023/10/04 12:38:00;;;;;;;7.80;3.90;;;;;;;;;;5098781;28;38921;-71
2023/10/04 12:40:28;;;;;;;6.72;2.85;;;;;;;;;;5090856;28;43177;-70
2023/10/04 12:42:56;;;;;;;7.13;3.95;;;;;;;;;;5104050;28;41311;-71
2023/10/04 12:45:24;;;;;;;6.50;3.13;;;;;;;;;;5096580;27;41622;-68
2023/10/04 12:47:52;;;;;;;5.97;2.58;;;;;;;;;;5092505;27;42616;-69
2023/10/04 12:50:22;;;;;;;5.65;2.83;;;;;;;;;;5096007;27;40488;-69
2023/10/04 12:52:51;;;;;;;8.82;2.75;;;;;;;;;;5105668;28;41538;-68
2023/10/04 12:55:21;;;;;;;10.07;3.78;;;;;;;;;;5108004;28;42128;-69
2023/10/04 12:57:48;;;;;;;6.75;3.53;;;;;;;;;;5097563;28;40023;-69
2023/10/04 13:00:24;;;;;;;8.30;3.45;;;;;;;;;;5099242;28;40890;-69
2023/10/04 13:02:55;;;;;;;8.07;3.20;;;;;;;;;;5100618;27;41438;-70
2023/10/04 13:05:26;;;;;;;15.43;3.28;;;;;;;;;;5092565;28;42014;-68
2023/10/04 13:07:54;;;;;;;7.45;3.28;;;;;;;;;;5102062;28;41841;-68
2023/10/04 13:10:24;;;;;;;4.95;2.80;;;;;;;;;;5110134;28;40491;-69
2023/10/04 13:12:52;;;;;;;3.90;2.55;;;;;;;;;;5107726;28;42235;-68
2023/10/04 13:15:21;;;;;;;5.68;2.85;;;;;;;;;;5105124;28;41033;-69
2023/10/04 13:17:50;;;;;;;8.60;2.83;;;;;;;;;;5100509;28;41233;-71
2023/10/04 13:20:24;;;;;;;6.63;3.03;;;;;;;;;;5104346;27;41536;-71
2023/10/04 13:22:52;;;;;;;4.88;2.97;;;;;;;;;;5092670;28;42133;-70
2023/10/04 13:25:20;;;;;;;7.03;3.25;;;;;;;;;;5097841;28;41164;-69
2023/10/04 13:27:49;;;;;;;5.25;3.03;;;;;;;;;;5102039;27;42199;-69
2023/10/04 13:30:18;;;;;;;7.50;3.55;;;;;;;;;;5104146;28;39920;-69
2023/10/04 13:32:48;;;;;;;10.48;3.00;;;;;;;;;;5102604;28;41666;-69
2023/10/04 13:35:16;;;;;;;7.50;3.35;;;;;;;;;;5099316;27;42434;-71
2023/10/04 13:37:44;;;;;;;5.75;2.72;;;;;;;;;;5093708;28;40233;-71
2023/10/04 13:40:19;;;;;;;6.57;2.72;;;;;;;;;;5104750;28;42856;-71
2023/10/04 13:42:48;;;;;;;8.32;3.30;;;;;;;;;;5103118;28;41791;-72
2023/10/04 13:45:18;;;;;;;6.22;3.20;;;;;;;;;;5098324;28;41094;-72
2023/10/04 13:47:46;;;;;;;9.63;3.05;;;;;;;;;;5101774;28;41569;-70
2023/10/04 13:50:18;;;;;;;22.45;3.97;;;;;;;;;;5095076;28;40257;-70
2023/10/04 13:52:46;;;;;;;7.28;3.05;;;;;;;;;;5105126;28;40944;-68
2023/10/04 13:55:14;;;;;;;9.25;2.83;;;;;;;;;;5106346;27;42431;-70
2023/10/04 13:57:43;;;;;;;8.50;2.80;;;;;;;;;;5103432;27;41290;-69
2023/10/04 14:00:22;;;;;;;5.85;2.67;;;;;;;;;;5102352;27;43289;-69
2023/10/04 14:02:53;;;;;;;6.97;3.38;;;;;;;;;;5094488;28;41943;-70
2023/10/04 14:05:21;;;;;;;5.18;2.42;;;;;;;;;;5099021;28;40694;-70
2023/10/04 14:07:51;;;;;;;6.47;3.13;;;;;;;;;;5104056;28;41935;-71
2023/10/04 14:10:23;;;;;;;7.60;2.65;;;;;;;;;;5099348;28;38448;-71
2023/10/04 14:12:52;;;;;;;7.13;3.00;;;;;;;;;;5101640;28;41256;-71
2023/10/04 14:15:20;;;;;;;6.72;3.50;;;;;;;;;;5105874;28;42459;-70
2023/10/04 14:17:49;;;;;;;10.30;2.55;;;;;;;;;;5107607;28;40415;-70
2023/10/04 14:20:20;;;;;;;6.43;3.13;;;;;;;;;;5096613;28;40530;-71
2023/10/04 14:22:49;;;;;;;9.75;3.17;;;;;;;;;;5092376;28;41987;-70
2023/10/04 14:25:17;;;;;;;8.13;2.90;;;;;;;;;;5096719;28;40995;-71
2023/10/04 14:27:45;;;;;;;6.47;3.13;;;;;;;;;;5106500;28;41289;-71
2023/10/04 14:30:16;;;;;;;6.97;3.05;;;;;;;;;;5103858;27;40256;-71
2023/10/04 14:32:44;;;;;;;7.82;2.90;;;;;;;;;;5098740;28;41240;-70
2023/10/04 14:35:12;;;;;;;3.90;2.63;;;;;;;;;;5095676;28;41902;-69
2023/10/04 14:37:43;;;;;;;7.18;2.92;;;;;;;;;;5098327;27;40381;-70
2023/10/04 14:40:14;;;;;;;10.60;2.38;;;;;;;;;;5105820;28;42050;-70
2023/10/04 14:42:42;;;;;;;9.73;2.83;;;;;;;;;;5093438;28;43503;-71
2023/10/04 14:45:10;;;;;;;6.45;2.47;;;;;;;;;;5103712;28;40027;-71
2023/10/04 14:47:38;;;;;;;6.32;3.05;;;;;;;;;;5097780;28;41497;-71
2023/10/04 14:50:09;;;;;;;6.43;2.58;;;;;;;;;;5106750;28;41566;-72
2023/10/04 14:52:37;;;;;;;7.25;2.53;;;;;;;;;;5102548;28;42520;-72
2023/10/04 14:55:07;;;;;;;6.60;2.50;;;;;;;;;;5105039;28;41757;-71
2023/10/04 14:57:35;;;;;;;7.55;2.88;;;;;;;;;;5099418;28;39973;-70